createdAt,value
2023-01-25T00:09:58.856Z,6662.74327
2023-01-25T00:25:01.491Z,3874.05936
2023-01-25T00:40:04.036Z,2700.3822
2023-01-25T00:55:07.055Z,2372.17151
2023-01-25T01:10:09.808Z,1979.02148
2023-01-25T01:25:12.266Z,1837.66283
2023-01-25T01:40:14.785Z,1734.06912
2023-01-25T01:55:17.192Z,1537.20853
2023-01-25T02:10:19.413Z,1383.18722
2023-01-25T02:25:21.945Z,1354.0675
2023-01-25T02:40:24.581Z,1423.54176
2023-01-25T02:55:27.158Z,1347.61956
2023-01-25T03:10:29.635Z,1220.88057
2023-01-25T03:25:31.989Z,1176.22661
2023-01-25T03:40:34.283Z,1194.09333
2023-01-25T03:55:36.706Z,1345.05754
2023-01-25T04:10:39.311Z,1199.15305
2023-01-25T04:25:41.728Z,1075.22847
2023-01-25T04:40:44.094Z,1067.92503
2023-01-25T04:55:46.409Z,1017.25427
2023-01-25T05:10:48.691Z,1048.92563
2023-01-25T05:25:51.094Z,1105.46925
2023-01-25T05:40:53.356Z,1113.29712
2023-01-25T05:55:55.638Z,1120.34888
2023-01-25T06:10:57.833Z,1220.88057
2023-01-25T06:26:00.271Z,1371.12454
2023-01-25T06:41:02.591Z,1270.19799
2023-01-25T06:56:04.995Z,1403.77035
2023-01-25T07:11:07.235Z,1375.12199
2023-01-25T07:26:09.526Z,1634.89362
2023-01-25T07:41:11.897Z,1773.18345
2023-01-25T07:56:14.221Z,1772.07313
2023-01-25T08:11:16.540Z,1834.08993
2023-01-25T08:26:18.919Z,1863.06831
2023-01-25T08:41:21.203Z,1992.95825
2023-01-25T08:56:23.455Z,2739.59394
2023-01-25T09:11:25.650Z,3074.41656
2023-01-25T09:26:27.931Z,2841.36599
2023-01-25T09:41:30.130Z,2632.55866
2023-01-25T09:56:32.492Z,2723.77338
2023-01-25T10:11:34.769Z,2779.96123
2023-01-25T10:26:37.105Z,2790.92755
2023-01-25T10:41:39.637Z,2506.64356
2023-01-25T10:56:41.889Z,2429.18506
2023-01-25T11:11:44.203Z,2226.59374
2023-01-25T11:26:46.414Z,2100.96561
2023-01-25T11:41:48.855Z,2198.9127
2023-01-25T11:56:51.122Z,1919.94622
2023-01-25T12:11:53.321Z,1908.2945
2023-01-25T12:26:55.615Z,1818.76656
2023-01-25T12:41:57.971Z,1812.94092
2023-01-25T12:57:00.178Z,1709.97028
2023-01-25T13:12:02.611Z,1574.84746
2023-01-25T13:27:04.895Z,1399.60486
2023-01-25T13:42:07.122Z,1581.00608
2023-01-25T13:57:09.375Z,1558.37054
2023-01-25T14:12:11.685Z,1357.96596
2023-01-25T14:27:13.984Z,1399.60486
2023-01-25T14:42:16.405Z,1429.29344
2023-01-25T14:57:18.678Z,1277.07632
2023-01-25T15:12:22.785Z,1264.5224
2023-01-25T15:27:25.169Z,1355.3645
2023-01-25T15:42:27.380Z,1443.87806
2023-01-25T15:57:29.612Z,1467.84284
2023-01-25T16:12:31.855Z,1538.04397
2023-01-25T16:27:34.128Z,1463.28904
2023-01-25T16:42:36.468Z,1518.24084
2023-01-25T16:57:38.689Z,1525.60696
2023-01-25T17:12:40.988Z,1574.84746
2023-01-25T17:27:43.235Z,1566.99939
2023-01-25T17:42:45.575Z,1724.55869
2023-01-25T17:57:47.889Z,1735.13232
2023-01-25T18:13:03.371Z,2062.68272
2023-01-25T18:28:06.705Z,2188.70893
2023-01-25T18:43:09.003Z,2221.35058
2023-01-25T18:58:11.187Z,2197.20547
2023-01-25T19:13:13.387Z,2486.81949
2023-01-25T19:28:15.609Z,3067.75116
2023-01-25T19:43:17.854Z,3651.6134
2023-01-25T19:58:20.038Z,4037.09037
2023-01-25T20:13:22.318Z,4297.64667
2023-01-25T20:28:24.688Z,4236.52745
2023-01-25T20:43:26.906Z,4414.97711
2023-01-25T20:58:29.103Z,4467.24597
2023-01-25T21:13:31.420Z,4616.63999
2023-01-25T21:28:33.629Z,4609.12104
2023-01-25T21:43:35.913Z,4904.6799
2023-01-25T21:58:38.104Z,4870.91274
2023-01-25T22:13:40.320Z,4571.89066
2023-01-25T22:28:42.591Z,4564.51664
2023-01-25T22:43:44.865Z,4605.37073
2023-01-25T22:58:47.123Z,4594.15636
2023-01-25T23:13:49.369Z,3728.59074
2023-01-25T23:28:51.696Z,2524.53218
2023-01-25T23:43:54.139Z,2105.65526
2023-01-25T23:58:56.355Z,1821.10732
